This is the latest recevied weather packets stored in our database for station/object N7CEE-2. If no packets are shown the sender has not sent any weather packets the latest 10 day(s).
| Time | Temp. | Humidity | Pressure | Rain* | Wind** | Luminosity | Snow |
|---|---|---|---|---|---|---|---|
| 1777813668 | 25° C | 34% | 1013.8 hPa | 0 mm | - | 23 W/m² | - |
| 1777813366 | 25° C | 34% | 1013.6 hPa | 0 mm | - | 16 W/m² | - |
| 1777813063 | 25° C | 34% | 1013.5 hPa | 0 mm | - | 12 W/m² | - |
| 1777812761 | 25° C | 34% | 1013.7 hPa | 0 mm | - | 8 W/m² | - |
| 1777812457 | 25° C | 34% | 1013.6 hPa | 0 mm | - | 5 W/m² | - |
| 1777812155 | 24.44° C | 35% | 1013.4 hPa | 0 mm | - | 3 W/m² | - |
| 1777811853 | 23.89° C | 36% | 1013.4 hPa | 0 mm | - | 2 W/m² | - |
| 1777811551 | 23.89° C | 37% | 1013.3 hPa | 0 mm | - | 1 W/m² | - |
| 1777811246 | 22.78° C | 37% | 1013.3 hPa | 0 mm | - | 0 W/m² | - |
| 1777810944 | 22.22° C | 40% | 1013.3 hPa | 0 mm | - | 0 W/m² | - |
| 1777810640 | 22.22° C | 41% | 1013.1 hPa | 0 mm | - | 0 W/m² | - |
| 1777810338 | 22.22° C | 39% | 1013.1 hPa | 0 mm | - | 0 W/m² | - |
| 1777810033 | 22.22° C | 39% | 1013 hPa | 0 mm | - | 0 W/m² | - |
| 1777809732 | 22.78° C | 38% | 1013.2 hPa | 0 mm | - | 0 W/m² | - |
| 1777809429 | 22.78° C | 39% | 1013.3 hPa | 0 mm | - | 0 W/m² | - |
| 1777809126 | 22.78° C | 39% | 1013.1 hPa | 0 mm | - | 0 W/m² | - |
| 1777808824 | 22.22° C | 39% | 1013.4 hPa | 0 mm | - | 0 W/m² | - |
| 1777808520 | 22.22° C | 41% | 1013.2 hPa | 0 mm | - | 0 W/m² | - |
| 1777808217 | 22.78° C | 39% | 1013.3 hPa | 0 mm | - | 0 W/m² | - |
| 1777807916 | 22.78° C | 38% | 1013.3 hPa | 0 mm | - | 0 W/m² | - |
| 1777807614 | 22.78° C | 38% | 1013.3 hPa | 0 mm | - | 0 W/m² | - |
| 1777807310 | 23.33° C | 36% | 1013.2 hPa | 0 mm | - | 0 W/m² | - |
| 1777807007 | 22.78° C | 37% | 1013.5 hPa | 0 mm | - | 0 W/m² | - |
| 1777806704 | 23.89° C | 37% | 1013.5 hPa | 0 mm | - | 0 W/m² | - |
| 1777806399 | 24.44° C | 36% | 1013.4 hPa | 0 mm | - | 0 W/m² | - |
* Rain latest hour (hover to see other rain measurements)
** Current wind speed in m/s (hover to see current wind gust speed)